Time;durP1;ratioP1;P1;durP2;ratioP2;P2;SDS_P1;SDS_P2;PMS_P1;PMS_P2;Temp;Humidity;BMP_temperature;BMP_pressure;BME280_temperature;BME280_humidity;BME280_pressure;Samples;Min_cycle;Max_cycle;Signal;HPM_P1;HPM_P2
2019/04/14 00:03:55;;;;;;;50.7;41.2;;;;;;;6.37;55.46387;960.6447;;;;
2019/04/14 00:06:14;;;;;;;52.7;41.4;;;;;;;6.38;55.29297;960.6105;;;;
2019/04/14 00:08:39;;;;;;;50.2;39.3;;;;;;;6.22;54.91699;960.5416;;;;
2019/04/14 00:11:07;;;;;;;53.9;41;;;;;;;6.17;55.11816;960.5293;;;;
2019/04/14 00:13:34;;;;;;;49.2;39.2;;;;;;;6.11;55.13281;960.4973;;;;
2019/04/14 00:15:59;;;;;;;50.1;38.9;;;;;;;6.16;55.01367;960.5467;;;;
2019/04/14 00:18:24;;;;;;;51.9;39.7;;;;;;;6.15;55.83691;960.5227;;;;
2019/04/14 00:20:49;;;;;;;50.5;38.8;;;;;;;6.11;55.52148;960.5226;;;;
2019/04/14 00:23:14;;;;;;;49.4;39.4;;;;;;;6.14;55.8916;960.5068;;;;
2019/04/14 00:25:40;;;;;;;49.3;39.7;;;;;;;6.13;55.7998;960.4734;;;;
2019/04/14 00:28:08;;;;;;;49.9;40.7;;;;;;;6.04;56.1543;960.4617;;;;
2019/04/14 00:30:33;;;;;;;50.2;40.7;;;;;;;5.97;56.87793;960.4258;;;;
2019/04/14 00:33:02;;;;;;;53.1;41.4;;;;;;;5.99;56.49121;960.4497;;;;
2019/04/14 00:35:31;;;;;;;53.8;40.3;;;;;;;6.07;55.96387;960.4033;;;;
2019/04/14 00:40:21;;;;;;;53.3;40.5;;;;;;;6.21;55.47754;960.4835;;;;
2019/04/14 00:43:05;;;;;;;52;40.9;;;;;;;6.27;54.99316;960.5195;;;;
2019/04/14 00:45:20;;;;;;;48.9;38.6;;;;;;;6.26;54.83105;960.4868;;;;
2019/04/14 00:47:43;;;;;;;50.6;40.4;;;;;;;6.17;55.55273;960.4744;;;;
2019/04/14 00:49:59;;;;;;;51.5;41;;;;;;;6.04;55.85645;960.4744;;;;
2019/04/14 00:52:24;;;;;;;53.9;40.7;;;;;;;6.02;55.96875;960.5187;;;;
2019/04/14 00:54:50;;;;;;;51.6;40.4;;;;;;;6.09;55.79492;960.4313;;;;
2019/04/14 00:57:18;;;;;;;51.2;39.1;;;;;;;6.07;55.80371;960.5009;;;;
2019/04/14 00:59:41;;;;;;;51.8;39.9;;;;;;;6.07;55.96387;960.5271;;;;
2019/04/14 01:02:06;;;;;;;51.5;40.3;;;;;;;6.08;56.08984;960.5002;;;;
2019/04/14 01:04:31;;;;;;;53.7;41.2;;;;;;;5.94;57.34277;960.4969;;;;
2019/04/14 01:06:56;;;;;;;56.1;41.6;;;;;;;5.93;57.80957;960.515;;;;
2019/04/14 01:09:22;;;;;;;56.9;42.5;;;;;;;5.83;58.67871;960.4355;;;;
2019/04/14 01:11:46;;;;;;;55.3;42.7;;;;;;;5.71;58.93652;960.4085;;;;
2019/04/14 01:14:12;;;;;;;54.6;42.4;;;;;;;5.58;59.1123;960.4217;;;;
2019/04/14 01:16:38;;;;;;;56.5;41.9;;;;;;;5.53;59.07129;960.4858;;;;
2019/04/14 01:19:03;;;;;;;54.9;41.3;;;;;;;5.62;58.99219;960.4849;;;;
2019/04/14 01:21:29;;;;;;;54.9;41.6;;;;;;;5.57;58.72363;960.4986;;;;
2019/04/14 01:23:54;;;;;;;56.2;43.4;;;;;;;5.64;58.74414;960.4661;;;;
2019/04/14 01:26:19;;;;;;;54.3;41.5;;;;;;;5.72;58.66406;960.4498;;;;
2019/04/14 01:28:44;;;;;;;54;41.8;;;;;;;5.66;59.30664;960.4897;;;;
2019/04/14 01:31:09;;;;;;;57.8;43.1;;;;;;;5.56;59.53418;960.4272;;;;
2019/04/14 01:33:35;;;;;;;53.5;42.2;;;;;;;5.54;59.95508;960.4039;;;;
2019/04/14 01:35:59;;;;;;;55.5;42.5;;;;;;;5.53;59.41504;960.5025;;;;
2019/04/14 01:38:25;;;;;;;52.4;40.7;;;;;;;5.48;59.64746;960.5201;;;;
2019/04/14 01:40:55;;;;;;;54.9;42.5;;;;;;;5.48;59.70605;960.5067;;;;
2019/04/14 01:43:21;;;;;;;55.5;42.3;;;;;;;5.48;59.83008;960.4908;;;;
2019/04/14 01:45:46;;;;;;;58;43.5;;;;;;;5.33;59.58203;960.4705;;;;
2019/04/14 01:48:12;;;;;;;55.3;42.2;;;;;;;5.39;59.59082;960.4608;;;;
2019/04/14 01:51:23;;;;;;;55.7;42.9;;;;;;;5.39;59.25781;960.4314;;;;
2019/04/14 01:53:31;;;;;;;55.7;41.6;;;;;;;5.37;58.89063;960.4455;;;;
2019/04/14 02:00:28;;;;;;;55.8;42.4;;;;;;;5.38;58.99316;960.5383;;;;
2019/04/14 02:02:46;;;;;;;55.8;42.2;;;;;;;5.36;59.24219;960.5485;;;;
2019/04/14 02:05:11;;;;;;;56;43.4;;;;;;;5.3;59.18848;960.6432;;;;
2019/04/14 02:07:36;;;;;;;56.3;42.7;;;;;;;5.28;59.09473;960.6105;;;;
2019/04/14 02:10:01;;;;;;;53.7;42.3;;;;;;;5.28;58.83105;960.67;;;;
2019/04/14 02:12:31;;;;;;;57.9;42.5;;;;;;;5.34;58.7373;960.626;;;;
2019/04/14 02:14:56;;;;;;;54.1;43.2;;;;;;;5.38;58.58203;960.6018;;;;
2019/04/14 02:17:21;;;;;;;58.5;43.2;;;;;;;5.36;58.79688;960.6206;;;;
2019/04/14 02:19:46;;;;;;;51.7;40.9;;;;;;;5.38;58.9707;960.5804;;;;
2019/04/14 02:22:11;;;;;;;54;42.3;;;;;;;5.25;58.91895;960.5546;;;;
2019/04/14 02:24:37;;;;;;;55.8;42.1;;;;;;;5.16;59.54688;960.58;;;;
2019/04/14 02:27:02;;;;;;;57.2;43.6;;;;;;;5.15;59.37305;960.5553;;;;
2019/04/14 02:29:27;;;;;;;54.1;41.7;;;;;;;5.08;59.7168;960.5115;;;;
2019/04/14 02:31:53;;;;;;;56.1;42.4;;;;;;;5.04;59.97461;960.5114;;;;
2019/04/14 02:34:18;;;;;;;54.9;42.3;;;;;;;4.88;60.06641;960.5089;;;;
2019/04/14 02:36:44;;;;;;;57;42.7;;;;;;;4.99;59.86523;960.5576;;;;
2019/04/14 02:39:09;;;;;;;57.5;42.8;;;;;;;4.95;60.16797;960.5533;;;;
2019/04/14 02:41:34;;;;;;;54.4;42.6;;;;;;;4.95;60.15625;960.5067;;;;
2019/04/14 02:43:59;;;;;;;54.8;43.2;;;;;;;4.92;60.35645;960.5055;;;;
2019/04/14 02:46:25;;;;;;;57.1;42.8;;;;;;;4.87;60.39453;960.4849;;;;
2019/04/14 02:48:52;;;;;;;58.3;42.9;;;;;;;4.79;60.53223;960.5222;;;;
2019/04/14 02:51:18;;;;;;;55.4;42.5;;;;;;;4.72;60.95703;960.4019;;;;
2019/04/14 02:53:42;;;;;;;57.9;43.7;;;;;;;4.67;61.11035;960.5114;;;;
2019/04/14 02:56:07;;;;;;;56.3;42;;;;;;;4.73;60.7998;960.5563;;;;
2019/04/14 02:58:32;;;;;;;60.2;44.3;;;;;;;4.73;60.65039;960.5356;;;;
2019/04/14 03:00:57;;;;;;;57;43.8;;;;;;;4.71;60.79688;960.5247;;;;
2019/04/14 03:03:23;;;;;;;57.2;43.8;;;;;;;4.72;60.95801;960.5747;;;;
2019/04/14 03:05:48;;;;;;;58.3;42.9;;;;;;;4.72;60.61621;960.4986;;;;
2019/04/14 03:08:13;;;;;;;58;43.5;;;;;;;4.59;61.29102;960.5112;;;;
2019/04/14 03:10:38;;;;;;;58.1;44.5;;;;;;;4.58;61.42871;960.592;;;;
2019/04/14 03:13:03;;;;;;;55.6;43.3;;;;;;;4.65;61.00488;960.5302;;;;
2019/04/14 03:15:28;;;;;;;58.5;43.9;;;;;;;4.51;61.24609;960.5901;;;;
2019/04/14 03:22:48;;;;;;;57.4;43.8;;;;;;;4.57;61.5625;960.568;;;;
2019/04/14 03:26:09;;;;;;;59.9;44.6;;;;;;;4.55;61.45703;960.4592;;;;
2019/04/14 03:27:55;;;;;;;64.1;46.5;;;;;;;4.44;61.60059;960.4911;;;;
2019/04/14 03:30:09;;;;;;;60.9;45.1;;;;;;;4.39;61.86816;960.5245;;;;
2019/04/14 03:32:26;;;;;;;60.9;44.5;;;;;;;4.31;62.02734;960.5449;;;;
2019/04/14 03:34:52;;;;;;;60.8;45.4;;;;;;;4.32;61.99414;960.5316;;;;
2019/04/14 03:37:16;;;;;;;60.1;44.4;;;;;;;4.39;61.66211;960.5165;;;;
2019/04/14 03:39:42;;;;;;;61.3;45.4;;;;;;;4.43;61.70313;960.5758;;;;
2019/04/14 03:42:07;;;;;;;59.6;44.3;;;;;;;4.37;61.96777;960.6069;;;;
2019/04/14 03:44:32;;;;;;;59.4;44.4;;;;;;;4.37;61.68262;960.6116;;;;
2019/04/14 03:46:57;;;;;;;60.8;44.5;;;;;;;4.38;61.67285;960.5428;;;;
2019/04/14 03:49:26;;;;;;;61.5;45;;;;;;;4.35;61.60059;960.5622;;;;
2019/04/14 03:51:51;;;;;;;58.7;44.3;;;;;;;4.32;61.7207;960.5823;;;;
2019/04/14 03:54:19;;;;;;;59.2;44.1;;;;;;;4.19;62.2041;960.5893;;;;
2019/04/14 03:56:51;;;;;;;61.6;45.9;;;;;;;4.04;62.48828;960.5953;;;;
2019/04/14 03:59:17;;;;;;;62.5;45.1;;;;;;;4.03;62.42969;960.6552;;;;
2019/04/14 04:02:28;;;;;;;56.8;43.8;;;;;;;4.13;62.43457;960.6836;;;;
2019/04/14 04:04:53;;;;;;;58.8;44.3;;;;;;;4.22;62.24219;960.7346;;;;
2019/04/14 04:09:54;;;;;;;59.2;45;;;;;;;4.17;62.16602;960.6587;;;;
2019/04/14 04:12:09;;;;;;;59.7;44.4;;;;;;;3.99;62.75684;960.6832;;;;
2019/04/14 04:14:34;;;;;;;58.7;44.6;;;;;;;4.01;62.97461;960.7619;;;;
2019/04/14 04:20:10;;;;;;;60.4;45.1;;;;;;;4.08;62.65527;960.7049;;;;
2019/04/14 04:22:12;;;;;;;59.1;44.3;;;;;;;4.06;63.19824;960.6903;;;;
2019/04/14 04:24:38;;;;;;;58.6;43.7;;;;;;;4;63.21191;960.666;;;;
2019/04/14 04:27:17;;;;;;;59.3;44.4;;;;;;;3.99;63.12012;960.7258;;;;
2019/04/14 04:29:18;;;;;;;61.8;43.8;;;;;;;3.93;63.30371;960.6678;;;;
2019/04/14 04:34:10;;;;;;;58.8;43.9;;;;;;;4.1;62.8623;960.7203;;;;
2019/04/14 04:38:58;;;;;;;57.5;44.2;;;;;;;4.21;62.87891;960.8367;;;;
2019/04/14 04:41:20;;;;;;;58;46.3;;;;;;;4.2;62.99219;960.8547;;;;
2019/04/14 04:43:44;;;;;;;63;44.5;;;;;;;4.18;62.96484;960.8606;;;;
2019/04/14 04:46:10;;;;;;;59.3;44.3;;;;;;;4.27;62.53516;960.903;;;;
2019/04/14 04:48:35;;;;;;;57.3;44.3;;;;;;;4.28;63.14063;960.9356;;;;
2019/04/14 04:51:00;;;;;;;55.9;44.5;;;;;;;4.34;62.27148;960.9263;;;;
2019/04/14 04:53:25;;;;;;;58.5;44.6;;;;;;;4.41;62.24707;961.0133;;;;
2019/04/14 04:55:51;;;;;;;55.5;42.4;;;;;;;4.36;62.27441;960.9623;;;;
2019/04/14 04:58:15;;;;;;;57.5;44.3;;;;;;;4.3;62.02539;961.031;;;;
2019/04/14 05:00:40;;;;;;;57.9;44.5;;;;;;;4.33;62.54297;960.9824;;;;
2019/04/14 05:03:06;;;;;;;56.6;43.3;;;;;;;4.38;62.74414;960.9529;;;;
2019/04/14 05:05:31;;;;;;;58;43.9;;;;;;;4.35;62.76367;960.985;;;;
2019/04/14 05:07:56;;;;;;;62;44.1;;;;;;;4.29;62.09277;961.0363;;;;
2019/04/14 05:10:38;;;;;;;59.3;43.6;;;;;;;4.31;62.36914;961.0516;;;;
2019/04/14 05:12:49;;;;;;;57.8;43.4;;;;;;;4.2;62.13574;961.0659;;;;
2019/04/14 05:17:37;;;;;;;56.4;43.2;;;;;;;4.26;62.50977;961.0859;;;;
2019/04/14 05:20:01;;;;;;;56.1;42.6;;;;;;;4.28;62.39844;961.0756;;;;
2019/04/14 05:22:28;;;;;;;58;43.7;;;;;;;4.29;62.71973;961.0703;;;;
2019/04/14 05:24:53;;;;;;;60.4;44.1;;;;;;;4.19;62.58008;961.0753;;;;
2019/04/14 05:27:21;;;;;;;58.6;43.8;;;;;;;4.2;62.80859;961.142;;;;
2019/04/14 05:29:47;;;;;;;56.3;43;;;;;;;4.28;62.83105;961.1556;;;;
2019/04/14 05:32:16;;;;;;;55.4;41.6;;;;;;;4.28;62.01074;961.1517;;;;
2019/04/14 05:34:40;;;;;;;59.7;43.3;;;;;;;4.26;62.64648;961.1747;;;;
2019/04/14 05:37:08;;;;;;;56.7;42.2;;;;;;;4.29;61.83203;961.1671;;;;
2019/04/14 05:39:33;;;;;;;56.2;43;;;;;;;4.31;61.67383;961.1697;;;;
2019/04/14 05:41:59;;;;;;;57.2;43;;;;;;;4.34;62.18066;961.205;;;;
2019/04/14 05:44:23;;;;;;;56.2;41.7;;;;;;;4.47;61.26367;961.2314;;;;
2019/04/14 05:46:53;;;;;;;57.9;43;;;;;;;4.38;61.92383;961.1931;;;;
2019/04/14 05:49:18;;;;;;;56.1;42.3;;;;;;;4.49;61.20898;961.2427;;;;
2019/04/14 05:51:43;;;;;;;55.4;41.2;;;;;;;4.36;61.5332;961.2371;;;;
2019/04/14 05:54:09;;;;;;;56.7;41.6;;;;;;;4.31;61.51367;961.2076;;;;
2019/04/14 05:56:35;;;;;;;56.7;41.1;;;;;;;4.39;61.27441;961.2848;;;;
2019/04/14 05:59:00;;;;;;;55.8;41.5;;;;;;;4.38;61.41016;961.3324;;;;
2019/04/14 06:01:25;;;;;;;57.6;42.6;;;;;;;4.45;61.47656;961.3561;;;;
2019/04/14 06:03:50;;;;;;;58.2;42.4;;;;;;;4.52;61.44238;961.3658;;;;
2019/04/14 06:06:15;;;;;;;73.1;53.2;;;;;;;4.58;61.07422;961.3564;;;;
2019/04/14 06:08:41;;;;;;;82.9;59.5;;;;;;;4.61;60.71191;961.367;;;;
2019/04/14 06:11:06;;;;;;;53.6;41.2;;;;;;;4.57;60.78711;961.3451;;;;
2019/04/14 06:13:31;;;;;;;55.6;40.7;;;;;;;4.7;60.31543;961.3967;;;;
2019/04/14 06:15:56;;;;;;;54.7;41.2;;;;;;;4.77;60.37109;961.4197;;;;
2019/04/14 06:18:24;;;;;;;55.8;40.5;;;;;;;4.99;60.25293;961.3826;;;;
2019/04/14 06:20:49;;;;;;;55.5;41;;;;;;;5.04;60.22559;961.3692;;;;
2019/04/14 06:23:14;;;;;;;56.1;41.6;;;;;;;5.16;59.79688;961.4387;;;;
2019/04/14 06:25:39;;;;;;;53.4;40.5;;;;;;;5.19;59.70898;961.3939;;;;
2019/04/14 06:28:04;;;;;;;53.2;41.2;;;;;;;5.21;60.27246;961.3574;;;;
2019/04/14 08:25:23;;;;;;;51.6;39.7;;;;;;;8.47;52.93848;961.3329;;;;
2019/04/14 08:27:49;;;;;;;50.5;40;;;;;;;8.9;52.25391;961.2997;;;;
2019/04/14 08:30:14;;;;;;;49.4;39.3;;;;;;;9.34;49.38867;961.3364;;;;
2019/04/14 08:34:19;;;;;;;48.3;39.3;;;;;;;9.94;47.68848;961.2612;;;;
2019/04/14 08:36:45;;;;;;;86.2;63.4;;;;;;;10.36;47.74707;961.2997;;;;
2019/04/14 08:39:09;;;;;;;55.8;45;;;;;;;10.49;46.73242;961.3392;;;;
2019/04/14 08:41:40;;;;;;;50.4;39;;;;;;;10.52;46.43457;961.2803;;;;
2019/04/14 08:44:18;;;;;;;49.7;39.6;;;;;;;10.54;45.75488;961.2314;;;;
2019/04/14 08:46:39;;;;;;;47.6;37.2;;;;;;;10.25;44.68262;961.2695;;;;
2019/04/14 08:49:11;;;;;;;48.2;39.1;;;;;;;10.3;45.11621;961.2466;;;;
2019/04/14 08:51:21;;;;;;;47.9;39.6;;;;;;;10.2;45.52148;961.3553;;;;
2019/04/14 08:53:49;;;;;;;46.2;37;;;;;;;10.35;45.60742;961.3645;;;;
2019/04/14 09:11:28;;;;;;;48.8;38.2;;;;;;;10.16;44.74316;961.3681;;;;
2019/04/14 09:13:48;;;;;;;47.5;38.6;;;;;;;10.21;44.23926;961.3417;;;;
2019/04/14 09:16:13;;;;;;;45.7;36.2;;;;;;;10.36;43.7002;961.3117;;;;
2019/04/14 09:18:41;;;;;;;46.3;36.9;;;;;;;10.54;43.89258;961.2866;;;;
2019/04/14 09:21:05;;;;;;;43.3;35.9;;;;;;;10.7;42.09082;961.3539;;;;
2019/04/14 09:23:36;;;;;;;46.3;37;;;;;;;10.79;43.32617;961.3561;;;;
2019/04/14 09:26:01;;;;;;;45.1;37.3;;;;;;;10.9;41.91406;961.3092;;;;
2019/04/14 09:28:26;;;;;;;47.5;38.1;;;;;;;11.02;40.95215;961.2783;;;;
2019/04/14 09:30:51;;;;;;;50.6;39.1;;;;;;;10.92;43.41992;961.3627;;;;
2019/04/14 09:33:16;;;;;;;47.3;37.6;;;;;;;11.01;41.68066;961.2712;;;;
2019/04/14 09:35:41;;;;;;;46.9;36.7;;;;;;;11.21;41.74707;961.3278;;;;
2019/04/14 09:38:06;;;;;;;47.2;37.6;;;;;;;11.17;41.06055;961.3669;;;;
2019/04/14 09:40:32;;;;;;;113.2;90.8;;;;;;;11.24;43.44141;961.3116;;;;
2019/04/14 09:42:57;;;;;;;76;59.2;;;;;;;11.52;43.57324;961.2623;;;;
2019/04/14 09:45:22;;;;;;;49.2;38.4;;;;;;;11.61;41.72754;961.3147;;;;
2019/04/14 09:47:48;;;;;;;44.7;36.4;;;;;;;11.76;42.1123;961.3273;;;;
2019/04/14 09:50:13;;;;;;;46.4;39;;;;;;;11.84;44.04688;961.3782;;;;
2019/04/14 09:52:38;;;;;;;46;38.5;;;;;;;12.09;43.38672;961.4072;;;;
2019/04/14 09:55:03;;;;;;;46.3;38;;;;;;;12.27;40.75781;961.3977;;;;
2019/04/14 09:57:28;;;;;;;46.2;38.2;;;;;;;12.36;39.87012;961.3617;;;;
2019/04/14 09:59:54;;;;;;;44.9;37.5;;;;;;;12.46;41.21582;961.3499;;;;
2019/04/14 10:02:18;;;;;;;46.1;38.8;;;;;;;12.53;39.93262;961.3878;;;;
2019/04/14 10:04:43;;;;;;;48.4;39.2;;;;;;;12.47;40.91504;961.399;;;;
2019/04/14 10:07:09;;;;;;;48.3;38.7;;;;;;;11.95;39.6123;961.322;;;;
2019/04/14 10:09:34;;;;;;;46.6;37.4;;;;;;;11.55;40.17969;961.3947;;;;
2019/04/14 10:12:00;;;;;;;44.4;37.6;;;;;;;11.29;41.99707;961.3879;;;;
2019/04/14 10:14:25;;;;;;;47.5;38.4;;;;;;;11.1;41.33008;961.3541;;;;
2019/04/14 10:16:50;;;;;;;47.3;38;;;;;;;11.01;41.27637;961.3728;;;;
2019/04/14 10:19:15;;;;;;;53.7;41.7;;;;;;;11.03;42.5752;961.4302;;;;
2019/04/14 10:21:40;;;;;;;43.2;36.2;;;;;;;11.14;43.36133;961.3842;;;;
2019/04/14 10:24:05;;;;;;;38.2;28;;;;;;;11.46;50.11816;961.4313;;;;
2019/04/14 10:26:30;;;;;;;46.2;37.3;;;;;;;11.76;41.5791;961.4211;;;;
2019/04/14 10:28:56;;;;;;;45.5;37.2;;;;;;;12.03;42.71875;961.4529;;;;
2019/04/14 10:31:22;;;;;;;43;36.3;;;;;;;12.12;40.40527;961.4852;;;;
2019/04/14 10:33:48;;;;;;;44;37.1;;;;;;;12.19;39.32031;961.4257;;;;
2019/04/14 10:36:13;;;;;;;44.9;36;;;;;;;12.34;38.37109;961.4883;;;;
2019/04/14 10:38:39;;;;;;;43.7;36.7;;;;;;;12.26;39.61719;961.3867;;;;
2019/04/14 10:41:04;;;;;;;45.4;36.7;;;;;;;11.84;38.86035;961.4119;;;;
2019/04/14 10:43:33;;;;;;;44.2;36.8;;;;;;;11.73;38.91992;961.4203;;;;
2019/04/14 10:45:58;;;;;;;45.5;37.8;;;;;;;11.62;38.10938;961.3995;;;;
2019/04/14 10:48:25;;;;;;;42.6;35.7;;;;;;;11.83;39.35742;961.3752;;;;
2019/04/14 10:50:50;;;;;;;43.6;36;;;;;;;11.92;39.88867;961.4105;;;;
2019/04/14 10:53:15;;;;;;;44.9;36.5;;;;;;;11.98;39.13867;961.4171;;;;
2019/04/14 10:55:41;;;;;;;43.9;35.5;;;;;;;12.5;38.09375;961.4556;;;;
2019/04/14 10:58:06;;;;;;;41.4;35;;;;;;;12.47;35.88379;961.4504;;;;
2019/04/14 11:00:36;;;;;;;43.2;35.5;;;;;;;12.83;39.58789;961.4666;;;;
2019/04/14 11:03:01;;;;;;;40.7;35.3;;;;;;;13.07;36.56152;961.462;;;;
2019/04/14 11:05:30;;;;;;;42.9;36.1;;;;;;;13.17;39.56055;961.3727;;;;
2019/04/14 11:07:51;;;;;;;42.2;35.6;;;;;;;13.87;36.76953;961.3817;;;;
2019/04/14 11:10:18;;;;;;;42.3;35;;;;;;;14.47;34.77637;961.4378;;;;
2019/04/14 11:12:43;;;;;;;41.6;34.5;;;;;;;14.39;33.88184;961.3455;;;;
2019/04/14 11:15:10;;;;;;;39.1;32.9;;;;;;;14.6;33.66602;961.399;;;;
2019/04/14 11:17:35;;;;;;;39.2;32.7;;;;;;;14.94;32.63965;961.432;;;;
2019/04/14 11:20:01;;;;;;;41.4;35.9;;;;;;;14.87;33.42969;961.4878;;;;
2019/04/14 11:22:29;;;;;;;41.5;35.1;;;;;;;14.2;32.93457;961.4553;;;;
2019/04/14 11:24:53;;;;;;;42.2;36.1;;;;;;;13.73;35.17285;961.4467;;;;
2019/04/14 11:27:19;;;;;;;43.1;36.7;;;;;;;13.34;33.86035;961.4625;;;;
2019/04/14 11:29:44;;;;;;;42.9;35.5;;;;;;;12.89;34.5918;961.5273;;;;
2019/04/14 11:34:48;;;;;;;39.6;33.7;;;;;;;12.42;36.35547;961.6586;;;;
2019/04/14 11:39:34;;;;;;;42.9;34.9;;;;;;;12.31;36.9043;961.6163;;;;
2019/04/14 11:41:59;;;;;;;41.4;34.1;;;;;;;12.36;36.04883;961.6136;;;;
2019/04/14 11:44:24;;;;;;;41.5;35.7;;;;;;;12.31;38.1123;961.6588;;;;
2019/04/14 11:46:49;;;;;;;78.6;60.9;;;;;;;12.45;39.22852;961.6283;;;;
2019/04/14 11:49:14;;;;;;;39;34.3;;;;;;;12.6;36.40527;961.6232;;;;
2019/04/14 11:51:39;;;;;;;38.6;32.6;;;;;;;12.71;35.86914;961.6397;;;;
2019/04/14 11:54:04;;;;;;;40.1;34.3;;;;;;;12.77;35.75781;961.6531;;;;
2019/04/14 11:56:34;;;;;;;38.9;33.7;;;;;;;12.91;35.08203;961.7094;;;;
2019/04/14 11:58:59;;;;;;;38;33.3;;;;;;;13.27;35.85645;961.6522;;;;
2019/04/14 12:01:41;;;;;;;41.9;34.4;;;;;;;13.48;34.34766;961.6164;;;;
2019/04/14 12:08:45;;;;;;;39.2;33.4;;;;;;;14.23;33.3457;961.7257;;;;
2019/04/14 12:11:05;;;;;;;38.6;33.2;;;;;;;14.15;32.73242;961.7455;;;;
2019/04/14 12:13:30;;;;;;;37.9;32;;;;;;;13.97;33.62891;961.8114;;;;
2019/04/14 12:15:55;;;;;;;36.2;31.7;;;;;;;14.02;32.85059;961.7324;;;;
2019/04/14 12:18:20;;;;;;;67;52.8;;;;;;;14.18;34.03027;961.7882;;;;
2019/04/14 12:20:46;;;;;;;36.9;32.7;;;;;;;14.23;32.46973;961.7989;;;;
2019/04/14 12:23:10;;;;;;;36.2;30.9;;;;;;;14.22;31.11621;961.8177;;;;
2019/04/14 12:25:35;;;;;;;37.3;31.7;;;;;;;14;30.4248;961.8541;;;;
2019/04/14 12:28:02;;;;;;;34.6;30.6;;;;;;;14.16;32.24414;961.8683;;;;
2019/04/14 12:30:27;;;;;;;40.8;31.8;;;;;;;13.99;33.20996;961.8906;;;;
2019/04/14 12:32:52;;;;;;;39.4;32.1;;;;;;;14.18;31.78906;961.909;;;;
2019/04/14 12:35:18;;;;;;;57.1;45.9;;;;;;;13.87;32.2334;961.9617;;;;
2019/04/14 12:37:44;;;;;;;42.2;35.1;;;;;;;13.84;33.83984;962.0044;;;;
2019/04/14 12:40:08;;;;;;;42.5;34;;;;;;;13.98;33.06934;961.9817;;;;
2019/04/14 12:42:48;;;;;;;38.7;32.9;;;;;;;13.89;33.4248;961.9667;;;;
2019/04/14 12:45:24;;;;;;;40.8;32.6;;;;;;;13.72;33.07324;961.907;;;;
2019/04/14 12:54:12;;;;;;;39.5;32.8;;;;;;;13.29;33.34375;961.9141;;;;
2019/04/14 12:56:41;;;;;;;42.4;35.1;;;;;;;13.21;34.08203;961.9286;;;;
2019/04/14 13:01:32;;;;;;;39.6;33.3;;;;;;;12.95;34.02637;961.9228;;;;
2019/04/14 13:03:56;;;;;;;39.7;33.2;;;;;;;12.66;33.7832;961.937;;;;
2019/04/14 13:06:21;;;;;;;36.1;30.9;;;;;;;12.44;33.32422;961.9383;;;;
2019/04/14 13:08:45;;;;;;;38.4;32.2;;;;;;;12.42;34.11426;961.8887;;;;
2019/04/14 13:11:10;;;;;;;39.9;33.8;;;;;;;12.76;35.1748;962.0106;;;;
2019/04/14 13:13:36;;;;;;;38.3;32.2;;;;;;;12.91;33.7793;961.9189;;;;
2019/04/14 13:16:01;;;;;;;38.8;32.6;;;;;;;12.97;36.12305;961.9112;;;;
2019/04/14 13:18:27;;;;;;;38.1;32.4;;;;;;;12.76;34.97656;961.9504;;;;
2019/04/14 13:20:51;;;;;;;37;31.4;;;;;;;12.83;34.64551;961.8599;;;;
2019/04/14 13:23:17;;;;;;;38;32.2;;;;;;;12.79;33.99121;961.8825;;;;
2019/04/14 13:25:41;;;;;;;36.7;32.1;;;;;;;12.87;34.4043;961.8633;;;;
2019/04/14 13:28:07;;;;;;;38.2;31.8;;;;;;;13.17;34.02148;961.8947;;;;
2019/04/14 13:30:34;;;;;;;37.6;31.7;;;;;;;13.38;32.81445;961.9283;;;;
2019/04/14 13:32:58;;;;;;;40.5;33.9;;;;;;;13.64;34.15039;961.9006;;;;
2019/04/14 13:35:22;;;;;;;37.4;32.1;;;;;;;13.42;32.52734;961.9108;;;;
2019/04/14 13:37:48;;;;;;;38.3;32.7;;;;;;;13.15;33.58887;961.8722;;;;
2019/04/14 13:40:17;;;;;;;37.7;32;;;;;;;13.15;34.01953;961.9581;;;;
2019/04/14 13:42:43;;;;;;;36.5;31.3;;;;;;;12.86;33.01953;961.9253;;;;
2019/04/14 13:45:08;;;;;;;36.6;30.8;;;;;;;12.74;32.56836;961.97;;;;
2019/04/14 13:47:33;;;;;;;37.4;31.1;;;;;;;12.65;33.49219;961.8825;;;;
2019/04/14 13:50:00;;;;;;;37.2;30.6;;;;;;;12.62;34.58301;961.9158;;;;
2019/04/14 13:52:24;;;;;;;34.2;29.5;;;;;;;12.74;34.56836;961.9227;;;;
2019/04/14 13:54:50;;;;;;;34.4;28.8;;;;;;;12.59;32.67285;961.9244;;;;
2019/04/14 13:57:14;;;;;;;34.6;29.1;;;;;;;12.46;33.7207;961.9276;;;;
2019/04/14 13:59:40;;;;;;;35.4;29.9;;;;;;;12.44;33.88184;961.9086;;;;
2019/04/14 14:02:05;;;;;;;36.4;29.4;;;;;;;12.58;33.70703;961.9213;;;;
2019/04/14 14:04:31;;;;;;;35.9;29.5;;;;;;;12.76;33.54785;961.9288;;;;
2019/04/14 14:06:56;;;;;;;34;28.6;;;;;;;12.78;32.9668;961.8755;;;;
2019/04/14 14:09:21;;;;;;;36.5;29.3;;;;;;;12.96;32.99219;961.8784;;;;
2019/04/14 14:11:57;;;;;;;34.1;28.5;;;;;;;12.8;31.79395;961.8984;;;;
2019/04/14 14:14:20;;;;;;;34.8;29.2;;;;;;;12.74;33.25488;961.8624;;;;
2019/04/14 14:16:56;;;;;;;32.8;28.7;;;;;;;12.82;33.27246;961.8994;;;;
2019/04/14 14:19:16;;;;;;;32.5;28.6;;;;;;;13.01;31.82031;961.9283;;;;
2019/04/14 14:21:51;;;;;;;35.4;29.5;;;;;;;12.92;32.65137;961.8409;;;;
2019/04/14 14:27:49;;;;;;;34.5;28.3;;;;;;;13.1;33.28223;962.002;;;;
2019/04/14 14:30:16;;;;;;;31.3;27.6;;;;;;;13.28;32.62109;961.9625;;;;
2019/04/14 14:32:41;;;;;;;31.4;27.9;;;;;;;13.26;31.6875;961.9448;;;;
2019/04/14 14:35:06;;;;;;;31.6;27.6;;;;;;;12.97;32.76074;961.9537;;;;
2019/04/14 14:37:33;;;;;;;33.3;28.2;;;;;;;12.84;31.90137;961.8935;;;;
2019/04/14 14:40:00;;;;;;;30;26.8;;;;;;;12.82;33.06348;961.9467;;;;
2019/04/14 14:42:25;;;;;;;31.1;27.5;;;;;;;12.85;34.46094;961.9648;;;;
2019/04/14 14:45:40;;;;;;;32.6;27.4;;;;;;;12.84;32.59961;961.9835;;;;
2019/04/14 14:47:19;;;;;;;32.7;27.7;;;;;;;12.86;33.86914;961.9501;;;;
2019/04/14 14:52:09;;;;;;;32.6;27.4;;;;;;;13.19;32.71875;961.9483;;;;
2019/04/14 14:54:32;;;;;;;31.4;28;;;;;;;13.22;33.01172;961.992;;;;
2019/04/14 14:57:04;;;;;;;32.7;27.5;;;;;;;13.33;32.44922;962.0341;;;;
2019/04/14 14:59:33;;;;;;;97.7;71.6;;;;;;;13.52;32.46387;962.014;;;;
2019/04/14 15:01:58;;;;;;;40.8;35.7;;;;;;;13.65;32.4502;962.0452;;;;
2019/04/14 15:04:23;;;;;;;30.5;27.2;;;;;;;13.28;32.67969;962.0742;;;;
2019/04/14 15:06:51;;;;;;;35;28.6;;;;;;;12.9;33.41797;962.1511;;;;
2019/04/14 15:09:15;;;;;;;35.1;29;;;;;;;12.81;34.31934;962.2174;;;;
2019/04/14 15:11:40;;;;;;;31.1;27.2;;;;;;;12.63;34.11719;962.1806;;;;
2019/04/14 15:14:10;;;;;;;33.3;26.9;;;;;;;12.36;34.21289;962.1319;;;;
2019/04/14 15:16:36;;;;;;;35.9;29.2;;;;;;;12.35;35.16504;962.1624;;;;
2019/04/14 15:19:01;;;;;;;36.1;28.7;;;;;;;12.44;35.16016;962.1653;;;;
2019/04/14 15:21:26;;;;;;;33.1;27.3;;;;;;;12.56;34.87988;962.2227;;;;
2019/04/14 15:23:51;;;;;;;38.5;30.4;;;;;;;12.58;34.9043;962.2286;;;;
2019/04/14 15:26:16;;;;;;;34.4;29.1;;;;;;;12.78;36.35156;962.2599;;;;
2019/04/14 15:28:41;;;;;;;31.2;27.5;;;;;;;12.85;35.18262;962.3067;;;;
2019/04/14 15:31:07;;;;;;;33.5;28.1;;;;;;;12.6;33.94141;962.3423;;;;
2019/04/14 15:33:38;;;;;;;35.8;28.5;;;;;;;12.38;35.15527;962.2664;;;;
2019/04/14 15:36:02;;;;;;;34.7;28.8;;;;;;;12.2;34.88574;962.3053;;;;
2019/04/14 15:38:27;;;;;;;32.6;27.6;;;;;;;12.1;35.80664;962.2877;;;;
2019/04/14 15:40:52;;;;;;;33.4;28.4;;;;;;;11.82;35.13281;962.2481;;;;
2019/04/14 15:43:19;;;;;;;33.4;28.2;;;;;;;11.78;35.69922;962.2989;;;;
2019/04/14 15:45:44;;;;;;;35.8;28.2;;;;;;;11.81;36.36328;962.2065;;;;
2019/04/14 15:48:09;;;;;;;33.3;28.3;;;;;;;11.77;36.60352;962.2317;;;;
2019/04/14 15:50:34;;;;;;;32.6;28.2;;;;;;;11.65;36.34961;962.2422;;;;
2019/04/14 15:52:59;;;;;;;32.7;28.2;;;;;;;11.77;37.50879;962.2445;;;;
2019/04/14 15:55:27;;;;;;;32;27;;;;;;;11.93;36.79102;962.3411;;;;
2019/04/14 15:58:07;;;;;;;31.9;27.6;;;;;;;11.99;36.91211;962.3645;;;;
2019/04/14 16:00:36;;;;;;;34.9;28.3;;;;;;;11.91;36.3125;962.3486;;;;
2019/04/14 16:03:11;;;;;;;35.1;28.4;;;;;;;11.85;36.63281;962.3512;;;;
2019/04/14 16:09:25;;;;;;;34.7;28;;;;;;;12.31;35.52148;962.3734;;;;
2019/04/14 16:11:47;;;;;;;34.3;27.4;;;;;;;12.2;35.2334;962.3439;;;;
2019/04/14 16:14:22;;;;;;;32.8;27;;;;;;;11.86;35.65918;962.4016;;;;
2019/04/14 16:19:04;;;;;;;30.9;26.3;;;;;;;12.05;35.9873;962.4005;;;;
2019/04/14 16:21:15;;;;;;;32.5;27.4;;;;;;;11.82;35.75977;962.3892;;;;
2019/04/14 16:23:59;;;;;;;33.4;27;;;;;;;11.95;36.66406;962.4331;;;;
2019/04/14 16:26:29;;;;;;;29.8;25.3;;;;;;;11.94;36.2002;962.4341;;;;
2019/04/14 16:28:56;;;;;;;29.7;24.9;;;;;;;11.89;35.67383;962.4057;;;;
2019/04/14 16:32:06;;;;;;;29.1;24.5;;;;;;;11.74;35.16211;962.4621;;;;
2019/04/14 16:36:12;;;;;;;33.7;24.6;;;;;;;11.6;35.45215;962.5679;;;;
2019/04/14 16:38:38;;;;;;;30.6;24.6;;;;;;;11.56;35.88965;962.5129;;;;
2019/04/14 16:41:05;;;;;;;30.6;24.2;;;;;;;11.77;35.66309;962.5444;;;;
2019/04/14 16:43:30;;;;;;;29.3;24.7;;;;;;;11.8;35.6084;962.5793;;;;
2019/04/14 16:45:59;;;;;;;30.6;25.2;;;;;;;11.88;35.67285;962.6041;;;;
2019/04/14 16:48:23;;;;;;;30.3;24.9;;;;;;;11.93;35.01465;962.6498;;;;
2019/04/14 16:50:48;;;;;;;31.3;25.4;;;;;;;11.82;35.13281;962.6289;;;;
2019/04/14 16:53:46;;;;;;;27.5;24.3;;;;;;;11.61;35.71973;962.6953;;;;
2019/04/14 16:58:16;;;;;;;29.7;25.1;;;;;;;11.79;35.32813;962.6492;;;;
2019/04/14 17:00:32;;;;;;;30.7;25.5;;;;;;;11.87;35.61328;962.7164;;;;
2019/04/14 17:03:02;;;;;;;29.2;24.9;;;;;;;11.92;36.11621;962.71;;;;
2019/04/14 17:05:27;;;;;;;30.6;25.6;;;;;;;12.04;35.09375;962.7774;;;;
2019/04/14 17:07:53;;;;;;;31.5;25.4;;;;;;;12.07;35.36328;962.7739;;;;
2019/04/14 17:10:20;;;;;;;29.6;25.7;;;;;;;12.1;35.33008;962.7921;;;;
2019/04/14 17:12:45;;;;;;;29.8;25.6;;;;;;;11.96;35.60938;962.8339;;;;